Time;durP1;ratioP1;P1;durP2;ratioP2;P2;SDS_P1;SDS_P2;PMS_P1;PMS_P2;Temp;Humidity;BMP_temperature;BMP_pressure;BME280_temperature;BME280_humidity;BME280_pressure;Samples;Min_cycle;Max_cycle;Signal;HPM_P1;HPM_P2
2023/07/14 00:01:35;;;;;;;3.67;3.37;;;24.90;58.20;;;;;;5032215;28;20927;-75
2023/07/14 00:04:13;;;;;;;3.70;3.40;;;24.90;58.10;;;;;;5048622;28;20431;-74
2023/07/14 00:06:41;;;;;;;4.13;3.77;;;24.90;58.10;;;;;;4999411;28;20427;-74
2023/07/14 00:09:25;;;;;;;5.20;3.30;;;24.80;58.10;;;;;;5033234;28;20485;-74
2023/07/14 00:11:52;;;;;;;4.30;3.90;;;24.80;58.10;;;;;;5032128;28;20430;-74
2023/07/14 00:14:18;;;;;;;4.00;3.70;;;24.80;58.20;;;;;;5033322;28;20408;-74
2023/07/14 00:16:44;;;;;;;4.00;3.60;;;24.80;58.10;;;;;;5032175;28;20404;-74
2023/07/14 00:19:18;;;;;;;4.00;3.70;;;24.80;58.10;;;;;;5048564;28;20508;-74
2023/07/14 00:21:45;;;;;;;3.53;3.23;;;24.80;58.10;;;;;;4988683;28;20452;-74
2023/07/14 00:24:16;;;;;;;4.07;3.60;;;24.80;58.20;;;;;;4995955;28;20432;-74
2023/07/14 00:26:47;;;;;;;3.60;3.40;;;24.70;58.10;;;;;;5013438;28;20443;-74
2023/07/14 00:29:42;;;;;;;4.23;3.80;;;24.70;58.10;;;;;;5013556;28;20425;-74
2023/07/14 00:32:13;;;;;;;4.00;3.60;;;24.70;58.10;;;;;;5022638;28;20425;-74
2023/07/14 00:34:42;;;;;;;3.93;3.60;;;24.70;58.20;;;;;;5015075;28;20455;-74
2023/07/14 00:37:08;;;;;;;3.70;3.40;;;24.70;58.20;;;;;;5031528;28;20795;-74
2023/07/14 00:39:37;;;;;;;3.73;3.40;;;24.70;58.20;;;;;;4998686;28;20459;-74
2023/07/14 00:42:07;;;;;;;4.13;3.73;;;24.70;58.20;;;;;;5031554;28;20443;-74
2023/07/14 00:44:36;;;;;;;3.80;3.50;;;24.70;58.30;;;;;;5031331;28;20415;-74
2023/07/14 00:47:22;;;;;;;4.17;3.53;;;24.70;58.30;;;;;;5014706;28;20443;-74
2023/07/14 00:49:54;;;;;;;4.13;3.70;;;24.60;58.20;;;;;;5031117;28;20444;-74
2023/07/14 00:52:35;;;;;;;3.93;3.50;;;24.60;58.20;;;;;;5015359;28;20428;-74
2023/07/14 00:55:39;;;;;;;4.83;3.77;;;24.60;58.20;;;;;;4995064;28;20400;-74
2023/07/14 00:58:26;;;;;;;3.93;3.63;;;24.60;58.30;;;;;;5027988;28;20490;-74
2023/07/14 01:01:23;;;;;;;4.00;3.70;;;24.60;58.40;;;;;;5011480;28;20451;-74
2023/07/14 01:04:02;;;;;;;4.07;3.67;;;24.60;58.40;;;;;;5027175;28;20849;-74
2023/07/14 01:06:31;;;;;;;3.90;3.60;;;24.50;58.30;;;;;;5030814;28;20416;-74
2023/07/14 01:09:13;;;;;;;3.30;3.00;;;24.50;58.40;;;;;;5047541;28;20447;-74
2023/07/14 01:11:44;;;;;;;3.93;3.63;;;24.50;58.40;;;;;;5006641;28;20790;-74
2023/07/14 01:14:20;;;;;;;4.30;3.90;;;24.50;58.40;;;;;;4994710;28;20971;-74
2023/07/14 01:16:47;;;;;;;3.60;3.40;;;24.50;58.30;;;;;;5010934;28;20998;-74
2023/07/14 01:19:31;;;;;;;5.47;3.80;;;24.50;58.40;;;;;;5027634;28;20856;-74
2023/07/14 01:22:12;;;;;;;3.83;3.47;;;24.50;58.40;;;;;;5012237;28;20409;-74
2023/07/14 01:24:54;;;;;;;3.53;3.23;;;24.50;58.40;;;;;;5012416;28;20503;-74
2023/07/14 01:27:21;;;;;;;3.90;3.60;;;24.50;58.40;;;;;;5012046;28;20471;-74
2023/07/14 01:29:47;;;;;;;3.73;3.43;;;24.40;58.30;;;;;;4994669;28;20432;-74
2023/07/14 01:32:21;;;;;;;3.93;3.50;;;24.40;58.40;;;;;;5025873;28;20477;-74
2023/07/14 01:34:47;;;;;;;5.03;3.77;;;24.40;58.40;;;;;;5031299;28;20419;-74
2023/07/14 01:37:19;;;;;;;3.63;3.27;;;24.40;58.40;;;;;;5029891;28;20446;-74
2023/07/14 01:39:47;;;;;;;3.30;3.00;;;24.40;58.40;;;;;;5013677;28;20489;-74
2023/07/14 01:42:15;;;;;;;4.30;3.90;;;24.40;58.50;;;;;;5016626;28;20431;-74
2023/07/14 01:44:46;;;;;;;4.07;3.53;;;24.40;58.50;;;;;;4978021;28;20502;-74
2023/07/14 01:47:13;;;;;;;4.43;3.60;;;24.40;58.50;;;;;;4994132;28;20440;-74
2023/07/14 01:49:50;;;;;;;4.20;3.80;;;24.40;58.50;;;;;;5014716;28;20423;-74
2023/07/14 01:52:25;;;;;;;3.87;3.67;;;24.40;58.50;;;;;;5016272;28;20428;-74
2023/07/14 01:54:58;;;;;;;4.00;3.70;;;24.30;58.40;;;;;;5010217;28;20961;-74
2023/07/14 01:57:27;;;;;;;3.70;3.40;;;24.30;58.40;;;;;;4977870;28;20455;-74
2023/07/14 02:00:04;;;;;;;3.60;3.40;;;24.30;58.40;;;;;;4994114;28;20521;-74
2023/07/14 02:02:42;;;;;;;3.60;3.40;;;24.30;58.40;;;;;;5042805;28;20431;-74
2023/07/14 02:05:22;;;;;;;3.83;3.53;;;24.30;58.40;;;;;;5029849;28;20490;-74
2023/07/14 02:07:49;;;;;;;3.70;3.37;;;24.30;58.40;;;;;;5029237;28;20967;-74
2023/07/14 02:10:21;;;;;;;4.03;3.70;;;24.30;58.40;;;;;;5029880;28;20419;-74
2023/07/14 02:12:49;;;;;;;4.70;4.00;;;24.20;58.30;;;;;;5013098;28;20420;-74
2023/07/14 02:15:25;;;;;;;4.07;3.77;;;24.20;58.30;;;;;;4993943;28;20512;-74
2023/07/14 02:17:52;;;;;;;3.83;3.53;;;24.20;58.20;;;;;;4993692;28;20444;-75
2023/07/14 02:20:47;;;;;;;3.77;3.50;;;24.20;58.20;;;;;;5009897;28;20436;-74
2023/07/14 02:23:19;;;;;;;6.83;3.37;;;24.20;58.30;;;;;;5010967;28;20413;-74
2023/07/14 02:25:54;;;;;;;3.80;3.50;;;24.20;58.30;;;;;;4993495;28;20431;-74
2023/07/14 02:28:19;;;;;;;4.47;4.07;;;24.20;58.30;;;;;;5009886;28;20482;-74
2023/07/14 02:30:58;;;;;;;4.13;3.70;;;24.20;58.30;;;;;;5011716;28;20412;-74
2023/07/14 02:33:34;;;;;;;4.00;3.70;;;24.20;58.30;;;;;;4997467;28;20991;-74
2023/07/14 02:36:16;;;;;;;3.63;3.37;;;24.10;58.30;;;;;;5030813;28;20477;-74
2023/07/14 02:38:47;;;;;;;3.63;3.33;;;24.10;58.20;;;;;;5030477;28;20439;-74
2023/07/14 02:41:41;;;;;;;4.53;3.77;;;24.10;58.30;;;;;;5009769;28;20428;-74
2023/07/14 02:44:12;;;;;;;3.60;3.40;;;24.10;58.30;;;;;;5008208;28;20442;-74
2023/07/14 02:47:00;;;;;;;4.17;3.77;;;24.10;58.30;;;;;;4993352;28;20428;-74
2023/07/14 02:49:29;;;;;;;3.80;3.60;;;24.10;58.40;;;;;;4977305;28;20463;-74
2023/07/14 02:51:55;;;;;;;3.67;3.40;;;24.10;58.30;;;;;;5056165;23;20508;-81
2023/07/14 02:54:23;;;;;;;3.57;3.37;;;24.10;58.40;;;;;;5112949;28;20443;-82
2023/07/14 02:56:49;;;;;;;4.63;3.63;;;24.10;58.40;;;;;;5112869;28;20462;-82
2023/07/14 02:59:16;;;;;;;3.80;3.50;;;24.00;58.40;;;;;;5112970;28;20471;-82
2023/07/14 03:01:44;;;;;;;4.10;3.80;;;24.00;58.40;;;;;;5089478;28;20575;-82
2023/07/14 03:04:11;;;;;;;4.40;4.00;;;24.00;58.30;;;;;;5095426;28;20426;-81
2023/07/14 03:06:37;;;;;;;3.90;3.47;;;24.00;58.90;;;;;;5113922;28;21055;-82
2023/07/14 03:09:03;;;;;;;4.27;3.83;;;24.00;58.50;;;;;;5095947;28;20280;-82
2023/07/14 03:11:33;;;;;;;4.07;3.80;;;24.00;58.40;;;;;;5111463;28;20516;-81
2023/07/14 03:14:03;;;;;;;4.07;3.77;;;24.00;58.50;;;;;;5095607;28;20959;-81
2023/07/14 03:16:31;;;;;;;4.33;3.93;;;24.00;58.50;;;;;;5079577;28;20903;-83
2023/07/14 03:18:59;;;;;;;4.20;3.87;;;24.00;59.10;;;;;;5113564;28;20459;-81
2023/07/14 03:21:25;;;;;;;4.33;3.70;;;24.00;58.50;;;;;;5107871;28;20427;-82
2023/07/14 03:23:51;;;;;;;3.70;3.43;;;24.00;58.50;;;;;;5080059;28;20262;-81
2023/07/14 03:26:17;;;;;;;3.93;3.63;;;23.90;58.50;;;;;;5097654;28;21169;-82
2023/07/14 03:28:43;;;;;;;3.63;3.43;;;23.90;58.50;;;;;;5096653;28;20189;-82
2023/07/14 03:31:11;;;;;;;3.90;3.60;;;23.90;58.50;;;;;;5118837;28;20414;-82
2023/07/14 03:33:41;;;;;;;4.37;3.97;;;23.90;58.60;;;;;;5103994;28;20456;-82
2023/07/14 03:36:11;;;;;;;3.90;3.60;;;23.90;58.60;;;;;;5107538;28;20435;-81
2023/07/14 03:38:42;;;;;;;4.30;3.90;;;23.90;58.60;;;;;;5084105;28;20409;-83
2023/07/14 03:41:12;;;;;;;4.90;3.30;;;23.90;58.70;;;;;;5102722;28;20434;-82
2023/07/14 03:43:38;;;;;;;4.73;4.07;;;23.80;58.60;;;;;;5107333;28;20489;-82
2023/07/14 03:46:04;;;;;;;3.70;3.43;;;23.80;58.60;;;;;;5087691;28;20882;-82
2023/07/14 03:48:32;;;;;;;3.77;3.33;;;23.80;58.60;;;;;;5098072;28;20355;-82
2023/07/14 03:51:05;;;;;;;3.43;3.23;;;23.80;58.70;;;;;;5077475;28;20928;-82
2023/07/14 03:53:32;;;;;;;3.70;3.50;;;23.80;58.70;;;;;;5096594;28;20940;-81
2023/07/14 03:55:58;;;;;;;3.90;3.60;;;23.80;58.70;;;;;;5095090;28;20429;-82
2023/07/14 03:58:28;;;;;;;4.27;3.80;;;23.80;58.70;;;;;;5078270;28;20746;-82
2023/07/14 04:01:00;;;;;;;4.13;3.77;;;23.80;58.70;;;;;;5071772;28;20583;-81
2023/07/14 04:03:27;;;;;;;3.70;3.43;;;23.80;58.80;;;;;;5084751;28;20754;-82
2023/07/14 04:05:54;;;;;;;4.07;3.77;;;23.80;58.80;;;;;;5097441;28;20784;-81
2023/07/14 04:08:24;;;;;;;3.63;3.37;;;23.70;58.80;;;;;;5100691;28;20441;-81
2023/07/14 04:10:50;;;;;;;4.30;3.90;;;23.70;58.80;;;;;;5098411;28;20507;-81
2023/07/14 04:13:18;;;;;;;4.40;4.00;;;23.70;58.80;;;;;;5080210;28;20444;-81
2023/07/14 04:15:49;;;;;;;3.70;3.40;;;23.70;58.90;;;;;;5109608;28;20839;-82
2023/07/14 04:18:15;;;;;;;4.00;3.60;;;23.70;58.90;;;;;;5115985;28;20427;-81
2023/07/14 04:20:46;;;;;;;3.80;3.50;;;23.70;58.90;;;;;;5115051;28;20480;-81
2023/07/14 04:23:18;;;;;;;3.90;3.60;;;23.70;59.00;;;;;;5087989;28;20512;-81
2023/07/14 04:25:44;;;;;;;4.87;3.47;;;23.70;59.00;;;;;;5094367;28;20458;-82
2023/07/14 04:28:13;;;;;;;3.47;3.17;;;23.70;59.00;;;;;;5110706;28;20440;-81
2023/07/14 04:30:38;;;;;;;5.10;3.97;;;23.70;59.10;;;;;;5094525;28;20837;-81
2023/07/14 04:33:04;;;;;;;3.80;3.50;;;23.70;59.10;;;;;;5109300;28;20186;-82
2023/07/14 04:35:30;;;;;;;4.50;3.97;;;23.70;59.20;;;;;;5114403;28;20806;-82
2023/07/14 04:37:58;;;;;;;5.00;3.60;;;23.60;59.10;;;;;;5081603;28;20431;-82
2023/07/14 04:40:27;;;;;;;3.73;3.37;;;23.60;59.10;;;;;;5114360;28;20537;-82
2023/07/14 04:42:53;;;;;;;3.80;3.50;;;23.60;59.20;;;;;;5113482;28;20575;-82
2023/07/14 04:45:21;;;;;;;4.17;3.60;;;23.60;59.10;;;;;;5097265;28;20444;-82
2023/07/14 04:47:50;;;;;;;3.83;3.57;;;23.60;59.20;;;;;;5097468;28;20896;-82
2023/07/14 04:50:16;;;;;;;4.10;3.80;;;23.60;59.20;;;;;;5115852;28;21010;-82
2023/07/14 04:52:44;;;;;;;4.37;4.07;;;23.60;59.20;;;;;;5110106;28;20480;-82
2023/07/14 04:55:12;;;;;;;5.67;3.50;;;23.60;59.30;;;;;;5097714;28;20174;-81
2023/07/14 04:57:38;;;;;;;4.60;4.30;;;23.60;59.30;;;;;;5114201;28;20408;-81
2023/07/14 05:00:05;;;;;;;4.07;3.73;;;23.50;59.30;;;;;;5108202;28;20463;-82
2023/07/14 05:02:33;;;;;;;3.90;3.60;;;23.50;59.30;;;;;;5110231;28;20448;-83
2023/07/14 05:05:14;;;;;;;3.90;3.50;;;23.50;59.30;;;;;;5093861;28;20451;-81
2023/07/14 05:07:40;;;;;;;4.37;3.83;;;23.50;59.40;;;;;;5114237;28;20422;-81
2023/07/14 05:10:09;;;;;;;5.00;4.20;;;23.50;59.40;;;;;;5112274;28;20424;-81
2023/07/14 05:12:36;;;;;;;3.87;3.57;;;23.50;59.40;;;;;;5093219;28;20428;-80
2023/07/14 05:15:11;;;;;;;3.90;3.57;;;23.50;59.50;;;;;;5093610;28;20456;-82
2023/07/14 05:17:43;;;;;;;4.27;3.77;;;23.50;59.50;;;;;;5076693;28;20984;-81
2023/07/14 05:20:10;;;;;;;4.30;4.00;;;23.50;59.50;;;;;;5093282;28;20471;-81
2023/07/14 05:22:46;;;;;;;4.37;3.97;;;23.50;59.50;;;;;;5094636;28;20471;-81
2023/07/14 05:25:14;;;;;;;3.70;3.27;;;23.50;60.10;;;;;;5093038;28;21037;-81
2023/07/14 05:27:43;;;;;;;3.70;3.40;;;23.50;59.50;;;;;;5092857;28;20523;-82
2023/07/14 05:30:10;;;;;;;5.20;4.20;;;23.50;59.50;;;;;;5076281;28;20600;-81
2023/07/14 05:32:37;;;;;;;4.23;3.60;;;23.40;59.50;;;;;;5099410;28;20434;-81
2023/07/14 05:35:03;;;;;;;3.97;3.57;;;23.50;59.60;;;;;;5079753;28;20538;-81
2023/07/14 05:37:31;;;;;;;4.43;3.60;;;23.50;59.60;;;;;;5114281;28;20416;-81
2023/07/14 05:39:59;;;;;;;3.90;3.63;;;23.40;59.60;;;;;;5096534;28;20475;-82
2023/07/14 05:42:30;;;;;;;3.63;3.43;;;23.40;59.60;;;;;;5095645;28;20730;-81
2023/07/14 05:44:55;;;;;;;3.30;3.00;;;23.40;59.60;;;;;;5114083;28;20438;-82
2023/07/14 05:47:26;;;;;;;4.57;4.17;;;23.40;59.60;;;;;;5113649;28;20198;-81
2023/07/14 05:49:52;;;;;;;3.97;3.60;;;23.40;59.60;;;;;;5114245;28;20174;-82
2023/07/14 05:52:18;;;;;;;3.93;3.60;;;23.40;59.60;;;;;;5108312;28;20805;-81
2023/07/14 05:54:49;;;;;;;3.97;3.63;;;23.40;59.60;;;;;;5094868;28;20177;-82
2023/07/14 05:57:17;;;;;;;4.30;3.70;;;23.40;59.60;;;;;;5113066;28;20517;-82
2023/07/14 05:59:43;;;;;;;3.97;3.60;;;23.40;59.70;;;;;;5100024;28;20812;-82
2023/07/14 06:02:14;;;;;;;4.30;3.90;;;23.40;60.30;;;;;;5096695;28;20473;-82
2023/07/14 06:04:46;;;;;;;4.23;3.97;;;23.40;59.70;;;;;;5092581;28;20453;-82
2023/07/14 06:07:17;;;;;;;4.87;3.70;;;23.40;59.70;;;;;;5105122;28;20415;-82
2023/07/14 06:09:43;;;;;;;5.43;4.00;;;23.40;59.70;;;;;;5116508;28;20584;-82
2023/07/14 06:12:11;;;;;;;5.67;4.13;;;23.40;59.80;;;;;;5090480;28;20959;-82
2023/07/14 06:14:41;;;;;;;4.30;3.90;;;23.40;59.70;;;;;;5113367;28;20427;-83
2023/07/14 06:17:08;;;;;;;3.97;3.57;;;23.40;59.80;;;;;;5112153;28;20484;-83
2023/07/14 06:19:37;;;;;;;4.40;4.10;;;23.40;59.80;;;;;;5096009;28;20492;-82
2023/07/14 06:22:04;;;;;;;3.70;3.40;;;23.40;59.90;;;;;;5098877;28;20455;-81
2023/07/14 06:24:30;;;;;;;4.63;4.23;;;23.40;59.80;;;;;;5059544;28;20436;-82
2023/07/14 06:26:56;;;;;;;4.00;3.70;;;23.40;59.80;;;;;;5075679;28;20424;-82
2023/07/14 06:29:22;;;;;;;4.70;4.30;;;23.40;59.80;;;;;;5103572;28;20451;-82
2023/07/14 06:31:48;;;;;;;4.17;3.77;;;23.40;59.90;;;;;;5109812;28;20179;-82
2023/07/14 06:34:14;;;;;;;4.50;3.97;;;23.40;59.90;;;;;;5095294;28;20509;-83
2023/07/14 06:36:43;;;;;;;5.83;3.90;;;23.30;59.90;;;;;;5093265;28;20495;-82
2023/07/14 06:39:09;;;;;;;3.93;3.63;;;23.30;59.90;;;;;;5092243;28;20218;-83
2023/07/14 06:41:36;;;;;;;4.10;3.80;;;23.30;60.00;;;;;;5082008;28;20762;-84
2023/07/14 06:44:14;;;;;;;4.10;3.80;;;23.30;60.00;;;;;;5092693;28;20397;-84
2023/07/14 06:46:40;;;;;;;3.90;3.60;;;23.30;60.00;;;;;;5075570;28;20558;-83
2023/07/14 06:49:08;;;;;;;4.63;3.43;;;23.30;60.00;;;;;;5092510;28;20435;-83
2023/07/14 06:51:34;;;;;;;6.33;3.83;;;23.30;59.90;;;;;;5102444;28;20776;-83
2023/07/14 06:54:00;;;;;;;4.73;3.97;;;23.40;60.00;;;;;;5093598;28;20428;-82
2023/07/14 06:56:26;;;;;;;5.07;4.17;;;23.30;59.80;;;;;;5094133;28;20519;-82
2023/07/14 06:58:52;;;;;;;4.20;3.80;;;23.30;59.90;;;;;;5096481;28;20671;-82
2023/07/14 07:01:21;;;;;;;4.77;3.93;;;23.40;59.90;;;;;;5096986;28;20420;-81
2023/07/14 07:03:47;;;;;;;3.93;3.60;;;23.40;60.00;;;;;;5109585;28;20454;-81
2023/07/14 07:06:17;;;;;;;5.40;3.80;;;23.40;60.00;;;;;;5083094;28;20424;-83
2023/07/14 07:08:46;;;;;;;3.73;3.43;;;23.40;60.00;;;;;;5096862;28;20407;-83
2023/07/14 07:11:15;;;;;;;3.73;3.40;;;23.40;60.00;;;;;;5102346;28;20431;-86
2023/07/14 07:13:41;;;;;;;6.30;4.40;;;23.40;60.00;;;;;;5116814;28;20442;-83
2023/07/14 07:16:10;;;;;;;4.20;3.80;;;23.40;60.20;;;;;;5096117;28;20444;-82
2023/07/14 07:18:38;;;;;;;4.30;3.70;;;23.40;60.10;;;;;;5080087;28;20428;-83
2023/07/14 07:21:07;;;;;;;4.60;3.90;;;23.40;60.10;;;;;;5083519;28;20474;-82
2023/07/14 07:23:35;;;;;;;4.20;3.80;;;23.40;60.10;;;;;;5115719;28;20416;-82
2023/07/14 07:26:08;;;;;;;4.10;3.70;;;23.40;60.00;;;;;;5086885;28;20477;-83
2023/07/14 07:29:25;;;;;;;4.13;3.80;;;23.40;60.00;;;;;;5091707;28;20420;-83
2023/07/14 07:31:51;;;;;;;4.27;3.93;;;23.40;60.00;;;;;;5093896;28;20482;-82
2023/07/14 07:34:17;;;;;;;4.00;3.67;;;23.40;60.10;;;;;;5116339;28;20447;-83
2023/07/14 07:36:46;;;;;;;4.03;3.73;;;23.40;60.00;;;;;;5095961;28;20183;-83
2023/07/14 07:39:11;;;;;;;5.00;3.67;;;23.40;60.10;;;;;;5078737;28;20466;-83
2023/07/14 07:41:39;;;;;;;4.13;3.77;;;23.40;60.00;;;;;;5107574;28;20209;-84
2023/07/14 07:44:08;;;;;;;4.37;3.97;;;23.40;60.00;;;;;;5115794;28;20170;-84
2023/07/14 07:46:34;;;;;;;4.43;4.03;;;23.50;60.00;;;;;;5115755;28;20459;-82
2023/07/14 07:49:53;;;;;;;4.43;3.80;;;23.50;60.00;;;;;;5086394;28;20515;-84
2023/07/14 07:52:47;;;;;;;4.63;3.60;;;23.50;60.00;;;;;;5095803;28;20843;-83
2023/07/14 07:55:15;;;;;;;4.30;3.80;;;23.50;60.20;;;;;;5094960;28;20437;-84
2023/07/14 07:57:47;;;;;;;3.93;3.50;;;23.50;59.90;;;;;;5079193;28;20443;-85
2023/07/14 08:00:15;;;;;;;3.90;3.47;;;23.50;60.20;;;;;;5096618;28;20886;-83
2023/07/14 08:02:46;;;;;;;5.40;4.10;;;23.50;59.90;;;;;;5095345;28;20453;-84
2023/07/14 08:05:17;;;;;;;3.63;3.03;;;23.50;60.30;;;;;;5078176;28;20438;-84
2023/07/14 08:07:45;;;;;;;3.90;3.60;;;23.50;60.00;;;;;;5095265;28;20509;-85
2023/07/14 08:10:13;;;;;;;4.30;3.90;;;23.60;60.00;;;;;;5079065;28;20444;-85
2023/07/14 08:12:39;;;;;;;4.23;3.90;;;23.60;60.00;;;;;;5078175;28;20444;-87
2023/07/14 08:15:07;;;;;;;3.90;3.60;;;23.60;59.90;;;;;;5115722;28;20185;-87
2023/07/14 08:17:33;;;;;;;6.90;3.93;;;23.60;59.80;;;;;;5098916;28;20759;-84
2023/07/14 08:19:59;;;;;;;4.23;3.83;;;23.60;59.90;;;;;;5098435;28;20612;-84
2023/07/14 08:22:26;;;;;;;5.37;4.20;;;23.60;59.80;;;;;;5098505;28;20444;-84
2023/07/14 08:24:54;;;;;;;4.23;3.83;;;23.70;59.90;;;;;;5077997;28;20533;-83
2023/07/14 08:27:22;;;;;;;4.03;3.60;;;23.70;60.00;;;;;;5095063;28;20436;-83
2023/07/14 08:29:50;;;;;;;5.80;3.70;;;23.70;59.90;;;;;;5095737;28;20428;-83
2023/07/14 08:32:18;;;;;;;3.80;3.33;;;23.70;59.80;;;;;;5111772;28;20429;-83
2023/07/14 08:34:44;;;;;;;3.80;3.43;;;23.80;59.70;;;;;;5095650;28;20432;-84
2023/07/14 08:37:10;;;;;;;6.70;3.83;;;23.70;59.70;;;;;;5078176;28;20843;-84
2023/07/14 08:39:38;;;;;;;4.40;4.00;;;23.80;60.00;;;;;;5077512;28;20556;-84
2023/07/14 08:42:23;;;;;;;5.50;3.90;;;23.80;60.00;;;;;;5091477;28;20424;-83
2023/07/14 08:45:23;;;;;;;4.50;3.87;;;23.80;59.90;;;;;;5115093;28;20414;-84
2023/07/14 08:48:06;;;;;;;4.20;3.60;;;23.80;59.70;;;;;;5023323;28;20456;-86
2023/07/14 08:50:36;;;;;;;4.37;4.07;;;23.80;59.90;;;;;;5082578;28;20523;-87
2023/07/14 08:53:19;;;;;;;4.20;3.80;;;23.90;59.80;;;;;;5098037;28;20450;-86
2023/07/14 08:55:50;;;;;;;4.07;3.60;;;23.90;59.70;;;;;;5115097;28;20474;-84
2023/07/14 08:58:26;;;;;;;4.00;3.70;;;24.00;59.60;;;;;;5081232;28;20412;-87
2023/07/14 09:00:53;;;;;;;3.30;3.10;;;24.00;59.50;;;;;;5099820;28;20512;-86
2023/07/14 09:03:56;;;;;;;4.57;3.63;;;24.00;59.40;;;;;;5125573;28;20427;-85
2023/07/14 09:06:38;;;;;;;4.10;3.80;;;24.00;59.30;;;;;;5111800;28;20451;-85
2023/07/14 09:09:41;;;;;;;3.97;3.67;;;24.00;59.20;;;;;;5115459;28;20688;-83
2023/07/14 09:12:34;;;;;;;5.93;3.67;;;24.10;59.30;;;;;;4999853;28;20433;-84
2023/07/14 09:15:10;;;;;;;4.23;3.83;;;24.00;59.20;;;;;;5091434;28;20845;-86
2023/07/14 09:17:47;;;;;;;3.93;3.60;;;24.10;59.40;;;;;;5096164;28;20505;-83
2023/07/14 09:20:28;;;;;;;3.97;3.60;;;24.10;59.50;;;;;;5096963;28;20459;-84
2023/07/14 09:23:33;;;;;;;4.23;3.83;;;24.10;59.50;;;;;;5114393;28;20416;-86
2023/07/14 09:26:19;;;;;;;3.90;3.60;;;24.10;59.40;;;;;;5097564;28;20427;-85
2023/07/14 09:28:50;;;;;;;4.73;3.50;;;24.10;59.30;;;;;;5114513;28;20564;-86
2023/07/14 09:31:39;;;;;;;4.07;3.43;;;24.20;59.40;;;;;;5111696;28;20721;-83
2023/07/14 09:34:33;;;;;;;4.53;3.70;;;24.20;59.30;;;;;;5103210;28;20448;-83
2023/07/14 09:37:00;;;;;;;3.80;3.20;;;24.20;59.20;;;;;;5113785;28;20543;-85
2023/07/14 09:39:39;;;;;;;4.60;4.10;;;24.20;59.10;;;;;;5097010;28;20463;-84
2023/07/14 09:42:13;;;;;;;4.23;3.70;;;24.30;59.10;;;;;;5094711;28;20435;-83
2023/07/14 09:44:38;;;;;;;4.47;4.07;;;24.30;59.10;;;;;;5093688;28;20924;-83
2023/07/14 09:47:09;;;;;;;3.67;3.20;;;24.30;59.10;;;;;;5092913;28;20424;-86
2023/07/14 09:49:51;;;;;;;3.57;3.27;;;24.40;59.10;;;;;;5102653;28;20174;-86
2023/07/14 09:52:20;;;;;;;5.00;4.17;;;24.40;59.10;;;;;;5114098;28;20850;-86
2023/07/14 09:54:55;;;;;;;4.20;3.50;;;24.40;59.10;;;;;;5096429;28;20483;-86
2023/07/14 09:57:25;;;;;;;3.57;3.27;;;24.40;59.10;;;;;;5114574;28;20456;-86
2023/07/14 10:00:16;;;;;;;4.20;3.53;;;24.40;59.00;;;;;;5097090;28;20468;-86
2023/07/14 10:02:42;;;;;;;4.77;4.07;;;24.50;59.00;;;;;;5099858;28;20463;-84
2023/07/14 10:05:46;;;;;;;3.87;3.40;;;24.50;59.00;;;;;;5079531;28;20442;-84
2023/07/14 10:08:28;;;;;;;5.67;3.90;;;24.50;59.00;;;;;;5096087;28;20189;-86
2023/07/14 10:11:16;;;;;;;4.50;3.63;;;24.60;58.90;;;;;;5111046;28;20417;-84
2023/07/14 10:13:59;;;;;;;3.73;3.40;;;24.60;58.90;;;;;;5092226;28;20885;-83
2023/07/14 10:16:27;;;;;;;4.13;3.83;;;24.70;59.00;;;;;;5095171;28;20420;-82
2023/07/14 10:18:54;;;;;;;6.50;3.60;;;24.70;58.90;;;;;;5092340;28;20449;-86
2023/07/14 10:21:29;;;;;;;4.23;3.83;;;24.70;58.90;;;;;;5104494;28;20412;-87
2023/07/14 10:24:18;;;;;;;4.50;3.73;;;24.70;58.80;;;;;;5096173;28;20445;-87
2023/07/14 10:27:21;;;;;;;3.93;3.50;;;24.80;58.80;;;;;;5113276;28;20419;-89
2023/07/14 10:30:00;;;;;;;4.47;3.70;;;24.80;58.70;;;;;;5095663;28;20511;-88
2023/07/14 10:32:34;;;;;;;5.40;4.03;;;24.90;58.70;;;;;;5096070;28;20467;-86
2023/07/14 10:35:13;;;;;;;4.50;4.00;;;24.90;58.70;;;;;;5113568;28;20413;-89
2023/07/14 10:37:55;;;;;;;4.80;4.03;;;24.90;58.70;;;;;;5113162;28;20425;-88
2023/07/14 10:40:26;;;;;;;4.13;3.73;;;25.00;58.60;;;;;;5113278;28;20530;-91
2023/07/14 10:42:56;;;;;;;3.70;3.40;;;25.00;58.50;;;;;;5096538;28;20422;-87
2023/07/14 10:45:22;;;;;;;3.57;3.30;;;25.00;58.50;;;;;;5113253;28;21485;-89
2023/07/14 10:48:08;;;;;;;4.33;3.93;;;25.10;58.40;;;;;;5096084;28;20492;-89
2023/07/14 10:50:39;;;;;;;4.33;3.40;;;25.10;58.30;;;;;;5096524;28;20177;-87
2023/07/14 10:53:15;;;;;;;4.50;3.47;;;25.10;58.20;;;;;;5113399;28;20890;-86
2023/07/14 10:55:43;;;;;;;4.10;3.67;;;25.20;58.20;;;;;;5113534;28;21046;-88
2023/07/14 10:58:43;;;;;;;3.50;3.20;;;25.20;58.10;;;;;;5095865;28;20415;-88
2023/07/14 11:01:22;;;;;;;3.70;3.40;;;25.20;58.00;;;;;;5094390;28;20480;-88
2023/07/14 11:04:25;;;;;;;4.37;3.97;;;25.30;58.00;;;;;;5096111;28;20848;-87
2023/07/14 11:06:54;;;;;;;4.07;3.73;;;25.30;57.90;;;;;;5063425;28;20812;-87
2023/07/14 11:09:20;;;;;;;4.47;4.03;;;25.40;57.80;;;;;;5113365;28;20507;-86
2023/07/14 11:12:29;;;;;;;3.87;3.57;;;25.40;57.60;;;;;;5095686;28;20527;-88
2023/07/14 11:15:21;;;;;;;5.27;4.03;;;25.40;57.60;;;;;;5075332;28;20216;-86
2023/07/14 11:18:15;;;;;;;5.33;4.00;;;25.40;57.60;;;;;;5105172;28;20438;-86
2023/07/14 11:20:51;;;;;;;5.40;4.90;;;25.50;57.60;;;;;;5095391;28;20467;-88
2023/07/14 11:23:41;;;;;;;4.30;3.70;;;25.50;57.50;;;;;;5095441;28;20416;-85
2023/07/14 11:26:29;;;;;;;4.87;4.43;;;25.50;57.50;;;;;;5110628;28;20439;-85
2023/07/14 11:29:16;;;;;;;4.37;3.97;;;25.60;57.50;;;;;;5065605;28;20420;-85
2023/07/14 11:32:02;;;;;;;5.30;4.37;;;25.60;57.40;;;;;;5111634;28;20496;-85
2023/07/14 11:34:39;;;;;;;4.80;4.40;;;25.60;57.30;;;;;;5113257;28;20403;-85
2023/07/14 11:37:11;;;;;;;4.07;3.77;;;25.60;57.20;;;;;;5088955;28;20522;-94
2023/07/14 11:40:00;;;;;;;4.20;3.83;;;25.70;57.30;;;;;;5079470;28;20472;-93
2023/07/14 11:42:30;;;;;;;4.47;4.00;;;25.70;57.20;;;;;;5099617;28;20425;-93
2023/07/14 11:45:00;;;;;;;5.60;4.10;;;25.70;57.10;;;;;;5068143;28;20539;-94
2023/07/14 11:47:38;;;;;;;4.30;3.90;;;25.80;57.00;;;;;;5085323;28;20423;-93
2023/07/14 11:50:19;;;;;;;6.13;4.80;;;25.80;56.90;;;;;;5086414;28;20482;-93
2023/07/14 11:53:10;;;;;;;4.50;4.10;;;25.80;56.80;;;;;;5084600;28;20405;-94
2023/07/14 11:55:43;;;;;;;5.03;4.53;;;25.90;56.80;;;;;;5085903;28;20661;-94
2023/07/14 11:58:30;;;;;;;4.43;4.07;;;25.90;56.70;;;;;;5074063;28;20440;-91
2023/07/14 12:01:03;;;;;;;5.70;3.90;;;25.90;56.50;;;;;;5108262;28;20786;-92
2023/07/14 12:03:37;;;;;;;4.97;4.57;;;26.00;56.50;;;;;;5102723;28;20401;-91
2023/07/14 12:06:18;;;;;;;4.53;4.13;;;26.00;56.50;;;;;;5071050;28;20420;-94
2023/07/14 12:09:06;;;;;;;5.43;4.40;;;26.00;56.70;;;;;;5086219;28;20546;-93
2023/07/14 12:11:42;;;;;;;5.93;4.53;;;26.10;56.60;;;;;;5085144;28;20514;-90
2023/07/14 12:14:29;;;;;;;8.03;4.47;;;26.10;56.40;;;;;;5086035;28;20869;-95
2023/07/14 12:16:57;;;;;;;5.03;4.07;;;26.10;56.50;;;;;;5101216;28;20451;-92
2023/07/14 12:19:32;;;;;;;5.07;4.60;;;26.10;56.00;;;;;;5083797;28;20507;-93
2023/07/14 12:26:35;;;;;;;4.53;4.17;;;26.20;55.90;;;;;;5118904;28;20463;-95
2023/07/14 12:29:12;;;;;;;4.33;4.00;;;26.20;55.80;;;;;;5100718;28;20424;-95
2023/07/14 12:31:56;;;;;;;6.53;4.73;;;26.30;55.90;;;;;;5100443;28;20683;-95
2023/07/14 12:34:32;;;;;;;4.83;4.40;;;26.30;55.70;;;;;;5083452;28;20447;-95
2023/07/14 12:37:32;;;;;;;4.67;4.27;;;26.30;56.00;;;;;;5053908;28;20747;-94
2023/07/14 12:40:29;;;;;;;4.93;4.43;;;26.40;55.60;;;;;;5046864;28;20976;-95
2023/07/14 12:43:19;;;;;;;4.27;3.97;;;26.40;55.90;;;;;;5080782;28;20453;-93
2023/07/14 12:45:48;;;;;;;4.43;4.13;;;26.40;55.30;;;;;;5057855;28;20804;-92
2023/07/14 12:48:14;;;;;;;7.00;4.37;;;26.40;55.70;;;;;;5044940;28;20547;-92
2023/07/14 12:50:44;;;;;;;5.33;4.40;;;26.50;55.70;;;;;;5062082;28;20493;-96
2023/07/14 12:53:28;;;;;;;4.93;4.53;;;26.50;55.50;;;;;;5043593;28;20460;-92
2023/07/14 12:55:54;;;;;;;4.70;4.30;;;26.60;55.30;;;;;;5026283;28;20432;-91
2023/07/14 12:58:24;;;;;;;3.93;3.63;;;26.60;55.80;;;;;;5025184;28;20418;-92
2023/07/14 13:00:55;;;;;;;4.60;3.97;;;26.60;55.30;;;;;;5057818;28;20480;-90
2023/07/14 13:03:26;;;;;;;5.10;4.27;;;26.60;54.90;;;;;;5025523;28;20723;-94
2023/07/14 13:05:55;;;;;;;4.17;3.87;;;26.70;55.10;;;;;;5025431;28;20472;-92
2023/07/14 13:08:26;;;;;;;4.80;3.97;;;26.70;54.80;;;;;;5048930;28;20421;-92
2023/07/14 13:10:53;;;;;;;4.30;3.90;;;26.70;54.80;;;;;;5061696;28;20472;-91
2023/07/14 13:13:31;;;;;;;4.30;3.90;;;26.80;55.20;;;;;;5062629;28;20442;-92
2023/07/14 13:16:02;;;;;;;4.17;3.87;;;26.80;54.80;;;;;;5079104;28;20556;-94
2023/07/14 13:18:31;;;;;;;4.67;4.17;;;26.80;54.90;;;;;;5062648;28;20428;-93
2023/07/14 13:21:01;;;;;;;4.80;4.23;;;26.80;54.80;;;;;;5061903;28;20489;-93
2023/07/14 13:23:33;;;;;;;4.37;4.07;;;26.90;54.80;;;;;;5062257;28;20417;-93
2023/07/14 13:26:19;;;;;;;4.07;3.77;;;26.90;54.80;;;;;;5079279;28;20439;-94